Time;durP1;ratioP1;P1;durP2;ratioP2;P2;SDS_P1;SDS_P2;PMS_P1;PMS_P2;Temp;Humidity;BMP_temperature;BMP_pressure;BME280_temperature;BME280_humidity;BME280_pressure;Samples;Min_cycle;Max_cycle;Signal;HPM_P1;HPM_P2
2023/09/08 00:02:03;;;;;;;;;;;24.20;65.80;;;;;;10366122;28;88876;-48
2023/09/08 00:07:05;;;;;;;;;;;24.20;65.60;;;;;;10365498;28;90895;-43
2023/09/08 00:12:07;;;;;;;;;;;24.20;65.60;;;;;;10363760;28;89463;-48
2023/09/08 00:17:09;;;;;;;;;;;24.20;65.50;;;;;;10365413;28;90021;-46
2023/09/08 00:22:12;;;;;;;;;;;24.20;65.40;;;;;;10364038;28;88779;-43
2023/09/08 00:27:14;;;;;;;;;;;24.20;65.40;;;;;;10360567;28;90762;-44
2023/09/08 00:32:16;;;;;;;;;;;24.20;65.20;;;;;;10360964;28;90806;-43
2023/09/08 00:37:17;;;;;;;;;;;24.20;65.20;;;;;;10361364;28;90209;-43
2023/09/08 00:42:19;;;;;;;;;;;24.20;65.10;;;;;;10351657;28;89042;-43
2023/09/08 00:47:20;;;;;;;;;;;24.20;65.10;;;;;;10344315;28;90276;-42
2023/09/08 00:52:23;;;;;;;;;;;24.20;64.90;;;;;;10339161;28;88770;-47
2023/09/08 00:57:26;;;;;;;;;;;24.20;64.90;;;;;;10366900;28;90483;-44
2023/09/08 01:02:27;;;;;;;;;;;24.20;64.80;;;;;;10364075;28;89368;-43
2023/09/08 01:07:30;;;;;;;;;;;24.20;64.80;;;;;;10364513;28;90118;-45
2023/09/08 01:12:34;;;;;;;;;;;24.20;64.70;;;;;;10362713;28;89053;-47
2023/09/08 01:17:36;;;;;;;;;;;24.20;64.60;;;;;;10339920;28;90770;-44
2023/09/08 01:22:44;;;;;;;;;;;24.20;64.60;;;;;;10363356;28;89243;-47
2023/09/08 01:27:47;;;;;;;;;;;24.20;64.40;;;;;;10350288;28;89715;-43
2023/09/08 01:32:49;;;;;;;;;;;24.10;64.30;;;;;;10361757;28;89715;-42
2023/09/08 01:37:50;;;;;;;;;;;24.10;64.30;;;;;;10361734;28;89198;-43
2023/09/08 01:42:52;;;;;;;;;;;24.10;64.20;;;;;;10338473;28;89096;-43
2023/09/08 01:47:54;;;;;;;;;;;24.10;64.10;;;;;;10360558;28;89074;-44
2023/09/08 01:52:56;;;;;;;;;;;24.10;64.10;;;;;;10344814;28;89583;-47
2023/09/08 01:57:58;;;;;;;;;;;24.10;63.90;;;;;;10337189;28;90472;-44
2023/09/08 02:02:59;;;;;;;;;;;24.10;63.90;;;;;;10347591;28;89009;-44
2023/09/08 02:08:03;;;;;;;;;;;24.10;63.80;;;;;;10353019;28;91016;-42
2023/09/08 02:13:05;;;;;;;;;;;24.00;63.80;;;;;;10347147;28;89690;-48
2023/09/08 02:18:07;;;;;;;;;;;24.00;63.70;;;;;;10347785;28;88797;-45
2023/09/08 02:23:09;;;;;;;;;;;24.00;63.60;;;;;;10343025;28;89618;-45
2023/09/08 02:28:11;;;;;;;;;;;24.00;63.50;;;;;;10354330;28;89614;-42
2023/09/08 02:33:13;;;;;;;;;;;24.00;63.50;;;;;;10357521;28;89322;-45
2023/09/08 02:38:15;;;;;;;;;;;24.00;63.40;;;;;;10357938;28;90202;-47
2023/09/08 02:43:17;;;;;;;;;;;24.00;63.40;;;;;;10358239;28;90403;-43
2023/09/08 02:48:18;;;;;;;;;;;24.00;63.40;;;;;;10359523;28;89575;-42
2023/09/08 02:53:20;;;;;;;;;;;23.90;63.30;;;;;;10345954;28;90060;-42
2023/09/08 02:58:22;;;;;;;;;;;23.90;63.30;;;;;;10333150;28;92247;-44
2023/09/08 03:03:25;;;;;;;;;;;23.90;63.30;;;;;;10323930;28;89440;-52
2023/09/08 03:08:26;;;;;;;;;;;23.90;63.30;;;;;;10337785;28;90253;-43
2023/09/08 03:13:29;;;;;;;;;;;23.90;63.30;;;;;;10345873;28;89788;-43
2023/09/08 03:18:32;;;;;;;;;;;23.90;63.20;;;;;;10353737;28;89897;-45
2023/09/08 03:23:36;;;;;;;;;;;23.90;63.20;;;;;;10341408;28;89074;-41
2023/09/08 03:28:38;;;;;;;;;;;23.80;63.10;;;;;;10356350;28;90049;-42
2023/09/08 03:33:42;;;;;;;;;;;23.80;63.10;;;;;;10359353;28;89215;-45
2023/09/08 03:38:44;;;;;;;;;;;23.80;63.10;;;;;;10339972;28;90192;-45
2023/09/08 03:43:46;;;;;;;;;;;23.80;63.10;;;;;;10333683;28;89562;-43
2023/09/08 03:48:47;;;;;;;;;;;23.80;63.00;;;;;;10333143;28;89704;-45
2023/09/08 03:53:49;;;;;;;;;;;23.80;63.00;;;;;;10356168;28;89657;-42
2023/09/08 03:58:51;;;;;;;;;;;23.70;63.00;;;;;;10318664;28;89090;-43
2023/09/08 04:03:52;;;;;;;;;;;23.80;62.90;;;;;;10325392;28;89622;-44
2023/09/08 04:08:55;;;;;;;;;;;23.80;63.00;;;;;;10347825;28;89445;-42
2023/09/08 04:13:56;;;;;;;;;;;23.70;63.00;;;;;;10357649;28;89993;-43
2023/09/08 04:18:58;;;;;;;;;;;23.70;63.00;;;;;;10359721;28;90125;-45
2023/09/08 04:24:00;;;;;;;;;;;23.70;62.90;;;;;;10365221;28;89469;-42
2023/09/08 04:29:01;;;;;;;;;;;23.70;63.00;;;;;;10362564;28;89315;-43
2023/09/08 04:34:03;;;;;;;;;;;23.70;63.00;;;;;;10362523;28;90936;-43
2023/09/08 04:39:05;;;;;;;;;;;23.70;63.00;;;;;;10361141;28;89640;-43
2023/09/08 04:44:07;;;;;;;;;;;23.70;63.00;;;;;;10359188;28;90433;-44
2023/09/08 04:49:09;;;;;;;;;;;23.70;62.90;;;;;;10764496;22;90805;-43
2023/09/08 04:54:11;;;;;;;;;;;23.60;62.90;;;;;;10394514;27;91246;-51
2023/09/08 04:59:12;;;;;;;;;;;23.60;62.70;;;;;;10389184;27;89994;-43
2023/09/08 05:04:14;;;;;;;;;;;23.60;62.90;;;;;;10393155;28;88756;-44
2023/09/08 05:09:16;;;;;;;;;;;23.60;63.10;;;;;;10398359;28;90204;-44
2023/09/08 05:14:17;;;;;;;;;;;23.60;63.10;;;;;;10397031;28;89102;-44
2023/09/08 05:19:19;;;;;;;;;;;23.60;63.10;;;;;;10396428;27;90382;-45
2023/09/08 05:24:21;;;;;;;;;;;23.60;63.10;;;;;;10398040;28;90011;-48
2023/09/08 05:29:23;;;;;;;;;;;23.60;63.10;;;;;;10396211;27;90429;-47
2023/09/08 05:34:25;;;;;;;;;;;23.60;63.10;;;;;;10389345;27;89946;-45
2023/09/08 05:39:26;;;;;;;;;;;23.60;63.20;;;;;;10392534;27;89357;-48
2023/09/08 05:44:28;;;;;;;;;;;23.60;62.10;;;;;;10390634;27;90058;-45
2023/09/08 05:49:30;;;;;;;;;;;23.40;61.50;;;;;;10396056;28;90087;-43
2023/09/08 05:54:31;;;;;;;;;;;23.30;62.50;;;;;;10391354;28;89351;-45
2023/09/08 05:59:33;;;;;;;;;;;23.20;62.30;;;;;;10402224;28;90012;-60
2023/09/08 06:04:35;;;;;;;;;;;23.10;62.40;;;;;;10384486;27;89719;-46
2023/09/08 06:09:37;;;;;;;;;;;23.00;62.40;;;;;;10374904;28;91831;-47
2023/09/08 06:14:38;;;;;;;;;;;23.00;62.40;;;;;;10367708;28;90007;-45
2023/09/08 06:19:44;;;;;;;;;;;23.00;62.60;;;;;;10365941;28;92111;-47
2023/09/08 06:24:45;;;;;;;;;;;23.00;62.70;;;;;;10371046;28;89930;-46
2023/09/08 06:29:47;;;;;;;;;;;22.90;63.10;;;;;;10367890;28;90129;-46
2023/09/08 06:34:49;;;;;;;;;;;22.90;63.40;;;;;;10398410;27;88981;-48
2023/09/08 06:39:51;;;;;;;;;;;22.90;63.80;;;;;;10389549;28;90028;-47
2023/09/08 06:44:53;;;;;;;;;;;22.90;64.30;;;;;;10378970;28;90490;-47
2023/09/08 06:49:55;;;;;;;;;;;22.90;64.40;;;;;;10396783;28;90592;-45
2023/09/08 06:54:56;;;;;;;;;;;23.00;64.70;;;;;;10397548;27;88999;-45
2023/09/08 06:59:58;;;;;;;;;;;23.00;64.70;;;;;;10390536;27;89824;-50
2023/09/08 07:05:06;;;;;;;;;;;23.00;64.80;;;;;;10392598;28;89673;-44
2023/09/08 07:10:08;;;;;;;;;;;23.10;65.70;;;;;;10393787;28;90806;-42
2023/09/08 07:15:10;;;;;;;;;;;23.00;65.50;;;;;;10387296;28;89337;-42
2023/09/08 07:20:12;;;;;;;;;;;23.00;65.90;;;;;;10384133;27;89689;-42
2023/09/08 07:25:14;;;;;;;;;;;23.00;66.20;;;;;;10376459;27;88973;-45
2023/09/08 07:30:16;;;;;;;;;;;22.90;66.30;;;;;;10389369;27;90102;-45
2023/09/08 07:35:19;;;;;;;;;;;22.90;66.50;;;;;;10376447;28;89318;-41
2023/09/08 07:40:21;;;;;;;;;;;22.90;66.80;;;;;;10390694;28;90129;-43
2023/09/08 07:45:23;;;;;;;;;;;23.00;66.90;;;;;;10383795;27;90488;-44
2023/09/08 07:50:25;;;;;;;;;;;23.00;66.90;;;;;;10380963;28;90776;-43
2023/09/08 07:55:28;;;;;;;;;;;23.00;66.80;;;;;;10384432;27;90363;-48
2023/09/08 08:00:30;;;;;;;;;;;23.00;66.90;;;;;;10402617;28;91141;-49
2023/09/08 08:05:32;;;;;;;;;;;23.00;67.10;;;;;;10381457;27;89351;-71
2023/09/08 08:10:33;;;;;;;;;;;23.00;67.30;;;;;;10377797;27;90771;-45
2023/09/08 08:15:39;;;;;;;;;;;23.10;67.10;;;;;;10369469;27;90709;-45
2023/09/08 08:20:41;;;;;;;;;;;23.10;67.20;;;;;;10372944;27;90723;-60
2023/09/08 08:25:42;;;;;;;;;;;23.10;67.20;;;;;;10365588;28;89126;-47
2023/09/08 08:30:44;;;;;;;;;;;23.10;67.40;;;;;;10373993;28;90308;-44
2023/09/08 08:35:50;;;;;;;;;;;23.10;67.30;;;;;;10372347;28;90597;-48
2023/09/08 08:40:54;;;;;;;;;;;23.20;67.30;;;;;;10376520;27;91565;-46
2023/09/08 08:45:57;;;;;;;;;;;23.20;67.30;;;;;;10374255;28;89549;-43
2023/09/08 08:50:59;;;;;;;;;;;23.20;67.10;;;;;;10369284;28;90793;-46
2023/09/08 08:56:02;;;;;;;;;;;23.20;67.10;;;;;;10370948;28;91915;-46
2023/09/08 09:01:04;;;;;;;;;;;23.30;67.20;;;;;;10364401;27;89077;-44
2023/09/08 09:06:06;;;;;;;;;;;23.30;67.20;;;;;;10371273;27;90381;-41
2023/09/08 09:11:07;;;;;;;;;;;23.30;67.70;;;;;;10376170;27;92154;-46
2023/09/08 09:16:10;;;;;;;;;;;23.40;67.90;;;;;;10383274;28;90710;-44
2023/09/08 09:21:12;;;;;;;;;;;23.40;68.30;;;;;;10367950;28;91935;-43
2023/09/08 09:26:23;;;;;;;;;;;23.50;68.40;;;;;;10374648;27;90981;-45
2023/09/08 09:31:25;;;;;;;;;;;23.50;68.50;;;;;;10358915;28;91740;-49
2023/09/08 09:36:27;;;;;;;;;;;23.60;68.00;;;;;;10367310;28;89115;-43
2023/09/08 09:41:31;;;;;;;;;;;23.70;68.10;;;;;;10366634;28;90672;-46
2023/09/08 09:46:33;;;;;;;;;;;23.70;67.70;;;;;;10362605;27;90288;-43
2023/09/08 09:51:39;;;;;;;;;;;23.80;67.70;;;;;;10367257;28;89211;-47
2023/09/08 09:56:41;;;;;;;;;;;23.90;67.50;;;;;;10362956;27;89092;-43
2023/09/08 10:01:46;;;;;;;;;;;24.00;67.40;;;;;;10370924;28;90496;-44
2023/09/08 10:06:48;;;;;;;;;;;24.10;67.20;;;;;;10373166;27;91084;-48
2023/09/08 10:11:51;;;;;;;;;;;24.20;67.10;;;;;;10371231;27;89768;-46
2023/09/08 10:16:56;;;;;;;;;;;24.30;67.00;;;;;;10373583;27;92081;-47
2023/09/08 10:22:00;;;;;;;;;;;24.30;66.90;;;;;;10351604;28;89386;-46
2023/09/08 10:27:06;;;;;;;;;;;24.40;66.90;;;;;;10356036;28;88824;-43
2023/09/08 10:32:08;;;;;;;;;;;24.40;66.80;;;;;;10359025;28;90727;-49
2023/09/08 10:37:19;;;;;;;;;;;24.50;66.90;;;;;;10377048;28;89923;-46
2023/09/08 10:42:24;;;;;;;;;;;24.50;66.90;;;;;;10360789;27;90765;-44
2023/09/08 10:47:30;;;;;;;;;;;24.50;66.90;;;;;;10357051;27;90344;-45
2023/09/08 10:52:35;;;;;;;;;;;24.50;67.00;;;;;;10364451;28;109679;-44
2023/09/08 10:57:37;;;;;;;;;;;24.60;67.20;;;;;;10367318;27;91802;-48
2023/09/08 11:02:40;;;;;;;;;;;24.60;67.10;;;;;;10367223;27;89242;-44
2023/09/08 11:07:43;;;;;;;;;;;24.60;67.20;;;;;;10362784;28;90267;-45
2023/09/08 11:12:45;;;;;;;;;;;24.60;67.20;;;;;;10362131;28;90297;-45
2023/09/08 11:17:50;;;;;;;;;;;24.60;67.30;;;;;;10360968;27;89151;-45
2023/09/08 11:22:52;;;;;;;;;;;24.60;67.40;;;;;;10379370;27;90758;-46
2023/09/08 11:27:54;;;;;;;;;;;24.60;67.40;;;;;;10367692;27;89695;-42
2023/09/08 11:32:58;;;;;;;;;;;24.60;67.40;;;;;;10377465;28;90280;-46
2023/09/08 11:38:01;;;;;;;;;;;24.60;67.50;;;;;;10377507;27;91255;-48
2023/09/08 11:43:03;;;;;;;;;;;24.60;67.50;;;;;;10374829;27;92425;-49
2023/09/08 11:48:05;;;;;;;;;;;24.60;67.60;;;;;;10372008;28;89209;-50
2023/09/08 11:53:07;;;;;;;;;;;24.60;67.60;;;;;;10368219;27;89105;-43
2023/09/08 11:58:08;;;;;;;;;;;24.60;67.60;;;;;;10378636;28;90922;-52
2023/09/08 12:03:15;;;;;;;;;;;24.60;67.70;;;;;;10370683;28;91412;-50
2023/09/08 12:08:16;;;;;;;;;;;24.60;67.80;;;;;;10380510;27;90611;-49
2023/09/08 12:13:22;;;;;;;;;;;24.60;67.70;;;;;;10369718;28;89825;-47
2023/09/08 12:18:36;;;;;;;;;;;24.60;67.70;;;;;;10399570;27;89886;-50
2023/09/08 12:23:49;;;;;;;;;;;24.60;67.70;;;;;;10382210;27;89559;-48
2023/09/08 12:28:51;;;;;;;;;;;24.70;67.70;;;;;;10375533;28;90384;-49
2023/09/08 12:33:53;;;;;;;;;;;24.70;69.20;;;;;;10389028;27;89743;-51
2023/09/08 12:38:55;;;;;;;;;;;24.80;68.40;;;;;;10378742;28;89356;-50
2023/09/08 12:43:56;;;;;;;;;;;24.80;68.10;;;;;;10377746;28;89117;-51
2023/09/08 12:48:58;;;;;;;;;;;24.80;68.10;;;;;;10375037;27;89522;-51
2023/09/08 12:54:00;;;;;;;;;;;24.80;68.00;;;;;;10385016;28;91630;-52
2023/09/08 12:59:01;;;;;;;;;;;24.80;68.10;;;;;;10376751;27;90055;-50
2023/09/08 13:04:03;;;;;;;;;;;24.80;68.00;;;;;;10374786;27;89752;-50
2023/09/08 13:09:05;;;;;;;;;;;24.80;68.00;;;;;;10369671;28;90466;-48
2023/09/08 13:14:07;;;;;;;;;;;24.80;68.00;;;;;;10375586;27;88993;-46
2023/09/08 13:19:09;;;;;;;;;;;24.80;68.00;;;;;;10368530;28;89602;-48
2023/09/08 13:24:12;;;;;;;;;;;24.80;68.00;;;;;;10364879;28;90277;-51
2023/09/08 13:29:14;;;;;;;;;;;24.80;67.90;;;;;;10364296;28;89848;-50
2023/09/08 13:34:15;;;;;;;;;;;24.80;67.90;;;;;;10373782;28;90277;-49
2023/09/08 13:39:17;;;;;;;;;;;24.70;68.70;;;;;;10376487;27;90512;-50
2023/09/08 13:44:19;;;;;;;;;;;24.80;68.60;;;;;;10371139;28;90284;-46
2023/09/08 13:49:25;;;;;;;;;;;24.80;69.70;;;;;;10363826;28;88941;-50
2023/09/08 13:54:28;;;;;;;;;;;24.80;68.70;;;;;;10518475;27;90154;-51
2023/09/08 13:59:31;;;;;;;;;;;24.80;68.70;;;;;;10538956;28;19966;-49
2023/09/08 14:04:39;;;;;;;;;;;24.80;68.70;;;;;;10554462;28;20398;-62
2023/09/08 14:09:42;;;;;;;;;;;24.80;68.80;;;;;;10537814;28;20318;-52
2023/09/08 14:14:49;;;;;;;;;;;24.80;68.80;;;;;;10545392;27;20417;-43
2023/09/08 14:19:51;;;;;;;;;;;24.80;68.90;;;;;;10543539;28;20418;-46
2023/09/08 14:24:53;;;;;;;;;;;24.80;68.80;;;;;;10536822;28;20039;-43
2023/09/08 14:29:54;;;;;;;;;;;24.80;68.90;;;;;;10536136;28;19932;-47
2023/09/08 14:34:56;;;;;;;;;;;24.80;68.80;;;;;;10542234;28;19932;-44
2023/09/08 14:39:58;;;;;;;;;;;24.80;68.70;;;;;;10537642;28;20409;-49
2023/09/08 14:44:59;;;;;;;;;;;24.80;68.70;;;;;;10540603;28;19935;-49
2023/09/08 14:50:03;;;;;;;;;;;24.80;68.60;;;;;;10538008;28;19932;-42
2023/09/08 14:55:04;;;;;;;;;;;24.80;68.60;;;;;;10540137;27;19939;-46
2023/09/08 15:00:08;;;;;;;;;;;24.80;68.60;;;;;;10539959;27;20510;-43
2023/09/08 15:05:09;;;;;;;;;;;24.80;68.40;;;;;;10537239;28;19933;-44
2023/09/08 15:10:11;;;;;;;;;;;24.80;68.40;;;;;;10535461;28;19932;-50
2023/09/08 15:15:13;;;;;;;;;;;24.80;68.50;;;;;;10549834;27;19932;-49
2023/09/08 15:20:15;;;;;;;;;;;24.80;68.60;;;;;;10536816;28;20315;-45
2023/09/08 15:25:17;;;;;;;;;;;24.80;68.70;;;;;;10551625;28;20338;-50
2023/09/08 15:30:19;;;;;;;;;;;24.90;69.10;;;;;;10550387;27;19932;-50
2023/09/08 15:35:21;;;;;;;;;;;24.90;69.40;;;;;;10575003;28;19932;-54
2023/09/08 15:40:24;;;;;;;;;;;25.00;70.60;;;;;;10565427;27;19932;-48
2023/09/08 15:45:25;;;;;;;;;;;25.10;71.70;;;;;;10560931;28;19932;-46
2023/09/08 15:50:27;;;;;;;;;;;25.20;72.20;;;;;;10569259;27;20065;-46
2023/09/08 15:55:29;;;;;;;;;;;25.30;73.30;;;;;;10570659;27;19932;-47
2023/09/08 16:00:33;;;;;;;;;;;25.40;73.80;;;;;;10561683;27;19932;-45
2023/09/08 16:05:35;;;;;;;;;;;25.50;73.20;;;;;;10572338;28;19932;-46
2023/09/08 16:10:36;;;;;;;;;;;25.60;72.10;;;;;;10572279;28;19939;-48
2023/09/08 16:15:39;;;;;;;;;;;25.60;71.70;;;;;;10575765;28;19932;-45
2023/09/08 16:20:41;;;;;;;;;;;25.70;71.40;;;;;;10578511;28;19931;-49
2023/09/08 16:25:43;;;;;;;;;;;25.70;71.20;;;;;;10571798;27;19932;-47
2023/09/08 16:30:45;;;;;;;;;;;25.70;70.70;;;;;;10575030;28;19940;-48
2023/09/08 16:35:47;;;;;;;;;;;25.70;71.20;;;;;;10575173;28;20402;-44
2023/09/08 16:40:49;;;;;;;;;;;25.60;71.20;;;;;;10568327;28;19932;-48
2023/09/08 16:45:51;;;;;;;;;;;25.60;70.90;;;;;;10572683;28;19931;-45
2023/09/08 16:50:52;;;;;;;;;;;25.50;70.90;;;;;;10568255;28;20318;-45
2023/09/08 16:55:54;;;;;;;;;;;25.50;70.80;;;;;;10574565;28;20126;-45
2023/09/08 17:00:56;;;;;;;;;;;25.40;70.90;;;;;;10578284;27;19932;-45
2023/09/08 17:05:57;;;;;;;;;;;25.40;70.80;;;;;;10567105;28;19938;-45
2023/09/08 17:11:03;;;;;;;;;;;25.40;71.10;;;;;;10577309;27;19939;-48
2023/09/08 17:16:05;;;;;;;;;;;25.30;71.00;;;;;;10547574;28;19940;-46
2023/09/08 17:21:06;;;;;;;;;;;25.30;71.00;;;;;;10569906;28;20011;-46
2023/09/08 17:26:09;;;;;;;;;;;25.30;71.10;;;;;;10571479;27;19932;-44
2023/09/08 17:31:11;;;;;;;;;;;25.30;71.20;;;;;;10568023;28;19954;-44
2023/09/08 17:36:13;;;;;;;;;;;25.30;71.10;;;;;;10573472;27;19989;-45
2023/09/08 17:41:15;;;;;;;;;;;25.30;71.30;;;;;;10574450;27;19932;-49
2023/09/08 17:46:16;;;;;;;;;;;25.30;71.40;;;;;;10571119;28;19939;-46
2023/09/08 17:51:18;;;;;;;;;;;25.30;71.40;;;;;;10577757;27;19938;-45
2023/09/08 17:56:20;;;;;;;;;;;25.20;71.40;;;;;;10574817;28;19939;-49
2023/09/08 18:01:22;;;;;;;;;;;25.30;71.60;;;;;;10566413;27;20223;-43
2023/09/08 18:06:24;;;;;;;;;;;25.20;71.60;;;;;;10569029;28;20391;-48
2023/09/08 18:11:26;;;;;;;;;;;25.30;71.70;;;;;;10574288;27;19932;-46
2023/09/08 18:16:27;;;;;;;;;;;25.30;71.70;;;;;;10574129;28;19932;-45
2023/09/08 18:21:29;;;;;;;;;;;25.20;71.80;;;;;;10564900;28;20315;-51
2023/09/08 18:26:31;;;;;;;;;;;25.30;71.80;;;;;;10575027;28;19958;-48
2023/09/08 18:31:33;;;;;;;;;;;25.30;71.90;;;;;;10574113;27;19932;-44
2023/09/08 18:36:35;;;;;;;;;;;25.20;71.80;;;;;;10547229;28;19936;-47
2023/09/08 18:41:37;;;;;;;;;;;25.30;72.80;;;;;;10584601;27;20462;-43
2023/09/08 18:46:39;;;;;;;;;;;25.30;72.10;;;;;;10567890;28;19932;-43
2023/09/08 18:51:41;;;;;;;;;;;25.30;71.50;;;;;;10564515;28;20028;-44
2023/09/08 18:56:43;;;;;;;;;;;25.30;71.60;;;;;;10568741;28;19932;-43
2023/09/08 19:01:44;;;;;;;;;;;25.30;71.50;;;;;;10561736;27;19932;-42
2023/09/08 19:06:46;;;;;;;;;;;25.20;71.40;;;;;;10564302;28;19932;-44
2023/09/08 19:11:48;;;;;;;;;;;25.30;71.60;;;;;;10573307;28;19940;-43
2023/09/08 19:16:50;;;;;;;;;;;25.20;71.70;;;;;;10571582;27;19977;-43
2023/09/08 19:21:51;;;;;;;;;;;25.20;71.70;;;;;;10562816;28;19933;-47
2023/09/08 19:26:53;;;;;;;;;;;25.30;71.90;;;;;;10571276;28;20387;-43
2023/09/08 19:31:55;;;;;;;;;;;25.20;72.00;;;;;;10559336;27;19936;-44
2023/09/08 19:36:57;;;;;;;;;;;25.20;72.00;;;;;;10563159;27;20456;-46
2023/09/08 19:41:58;;;;;;;;;;;25.30;72.10;;;;;;10561486;28;20428;-44
2023/09/08 19:47:00;;;;;;;;;;;25.20;73.00;;;;;;10570780;28;19939;-46
2023/09/08 19:52:02;;;;;;;;;;;25.20;72.00;;;;;;10556447;28;19990;-44
2023/09/08 19:57:04;;;;;;;;;;;25.30;72.10;;;;;;10577082;28;19939;-47
2023/09/08 20:02:09;;;;;;;;;;;25.20;72.10;;;;;;10572432;28;20293;-44
2023/09/08 20:07:11;;;;;;;;;;;25.20;72.00;;;;;;10572107;28;20441;-44
2023/09/08 20:12:13;;;;;;;;;;;25.20;72.00;;;;;;10572477;28;19975;-42
2023/09/08 20:17:15;;;;;;;;;;;25.20;72.10;;;;;;10564730;28;19939;-44
2023/09/08 20:22:17;;;;;;;;;;;25.20;72.00;;;;;;10578790;28;19932;-46
2023/09/08 20:27:18;;;;;;;;;;;25.10;71.80;;;;;;10564802;28;20082;-46
2023/09/08 20:32:21;;;;;;;;;;;25.20;71.80;;;;;;10577256;28;20298;-45
2023/09/08 20:37:23;;;;;;;;;;;25.10;71.70;;;;;;10575833;28;20338;-51
2023/09/08 20:42:24;;;;;;;;;;;25.10;71.60;;;;;;10560114;27;19933;-46
2023/09/08 20:47:26;;;;;;;;;;;25.10;71.60;;;;;;10561895;28;19932;-46
2023/09/08 20:52:28;;;;;;;;;;;25.10;71.50;;;;;;10554875;27;19932;-46
2023/09/08 20:57:30;;;;;;;;;;;25.10;71.40;;;;;;10565718;28;19932;-46
2023/09/08 21:02:31;;;;;;;;;;;25.10;71.40;;;;;;10561238;27;20430;-45
2023/09/08 21:07:33;;;;;;;;;;;25.10;71.40;;;;;;10551529;28;20424;-44
2023/09/08 21:12:35;;;;;;;;;;;25.00;71.20;;;;;;10547922;28;19938;-46
2023/09/08 21:17:37;;;;;;;;;;;25.10;71.30;;;;;;10576792;28;19940;-43
2023/09/08 21:22:38;;;;;;;;;;;25.10;71.20;;;;;;10559798;28;19936;-46
2023/09/08 21:27:40;;;;;;;;;;;25.00;71.10;;;;;;10564428;28;20203;-45
2023/09/08 21:32:42;;;;;;;;;;;25.00;71.20;;;;;;10556886;28;19932;-45
2023/09/08 21:37:44;;;;;;;;;;;25.00;71.10;;;;;;10561965;28;19975;-49
2023/09/08 21:42:45;;;;;;;;;;;25.00;71.10;;;;;;10565648;28;21812;-45
2023/09/08 21:47:49;;;;;;;;;;;25.00;71.10;;;;;;10591253;27;19932;-48
2023/09/08 21:52:52;;;;;;;;;;;25.00;71.00;;;;;;10567406;28;20409;-48
2023/09/08 21:57:55;;;;;;;;;;;25.00;71.00;;;;;;10568381;27;20193;-43
2023/09/08 22:02:57;;;;;;;;;;;25.00;70.90;;;;;;10568954;27;19933;-43
2023/09/08 22:07:59;;;;;;;;;;;25.00;70.90;;;;;;10566772;28;19932;-46
2023/09/08 22:13:00;;;;;;;;;;;25.00;70.90;;;;;;10553226;27;19933;-43
2023/09/08 22:18:02;;;;;;;;;;;25.00;70.90;;;;;;10569237;28;20268;-44
2023/09/08 22:23:04;;;;;;;;;;;25.00;70.90;;;;;;10564895;27;19932;-47
2023/09/08 22:28:06;;;;;;;;;;;25.00;70.90;;;;;;10568220;28;20321;-44
2023/09/08 22:33:08;;;;;;;;;;;25.00;70.90;;;;;;10568928;28;20452;-48
2023/09/08 22:38:10;;;;;;;;;;;25.00;70.90;;;;;;10574145;27;20433;-44
2023/09/08 22:43:12;;;;;;;;;;;25.00;70.90;;;;;;10574834;28;19932;-45
2023/09/08 22:48:13;;;;;;;;;;;25.00;70.90;;;;;;10576949;28;19932;-47
2023/09/08 22:53:16;;;;;;;;;;;25.00;70.90;;;;;;10568396;28;19932;-46
2023/09/08 22:58:18;;;;;;;;;;;25.00;70.80;;;;;;10564868;27;20563;-43
2023/09/08 23:03:20;;;;;;;;;;;24.90;70.70;;;;;;10553924;28;19944;-44
2023/09/08 23:08:22;;;;;;;;;;;24.90;70.70;;;;;;10535048;28;20307;-45
2023/09/08 23:13:24;;;;;;;;;;;25.00;70.70;;;;;;10558904;28;20258;-46
2023/09/08 23:18:25;;;;;;;;;;;25.00;70.60;;;;;;10563290;28;20390;-44
2023/09/08 23:23:27;;;;;;;;;;;25.00;70.60;;;;;;10565160;27;20056;-48
2023/09/08 23:28:29;;;;;;;;;;;25.00;70.50;;;;;;10559066;28;20310;-59
2023/09/08 23:33:30;;;;;;;;;;;24.90;70.50;;;;;;10577058;27;20543;-43
2023/09/08 23:38:32;;;;;;;;;;;24.90;70.50;;;;;;10567955;28;19932;-48
2023/09/08 23:43:34;;;;;;;;;;;24.90;70.30;;;;;;10569447;28;19932;-46
2023/09/08 23:48:37;;;;;;;;;;;24.90;70.50;;;;;;10568933;27;20375;-43
2023/09/08 23:53:38;;;;;;;;;;;24.90;70.30;;;;;;10578735;28;20375;-43
2023/09/08 23:58:40;;;;;;;;;;;24.90;70.30;;;;;;10557933;28;20197;-43
